Time;durP1;ratioP1;P1;durP2;ratioP2;P2;SDS_P1;SDS_P2;PMS_P1;PMS_P2;Temp;Humidity;BMP_temperature;BMP_pressure;BME280_temperature;BME280_humidity;BME280_pressure;Samples;Min_cycle;Max_cycle;Signal;HPM_P1;HPM_P2
2021/10/24 00:01:20;;;;;;;;;30.25;27.00;;;;;8.13;74.87;102244.56;5017102;28;45383;-74
2021/10/24 00:03:46;;;;;;;;;29.50;27.00;;;;;8.03;75.14;102234.16;5034700;28;45419;-74
2021/10/24 00:06:12;;;;;;;;;28.25;25.50;;;;;8.09;75.21;102243.72;5034407;28;45568;-74
2021/10/24 00:08:37;;;;;;;;;29.25;22.50;;;;;8.06;75.05;102239.38;5034142;28;45546;-74
2021/10/24 00:11:04;;;;;;;;;28.00;20.25;;;;;8.05;75.05;102232.44;5033927;28;45751;-74
2021/10/24 00:13:30;;;;;;;;;26.75;23.50;;;;;7.90;75.15;102205.50;5034322;28;46123;-74
2021/10/24 00:15:56;;;;;;;;;32.00;25.50;;;;;7.99;75.24;102227.25;5034272;28;45504;-74
2021/10/24 00:18:23;;;;;;;;;31.50;26.75;;;;;7.97;75.03;102221.13;5034154;28;45482;-73
2021/10/24 00:20:50;;;;;;;;;31.00;24.25;;;;;7.97;75.06;102223.75;5034299;28;45558;-74
2021/10/24 00:23:16;;;;;;;;;36.75;25.75;;;;;7.95;75.09;102224.66;5016178;28;47270;-74
2021/10/24 00:25:41;;;;;;;;;29.50;28.00;;;;;7.92;75.30;102208.97;5033629;28;45344;-74
2021/10/24 00:28:07;;;;;;;;;26.00;23.50;;;;;7.90;75.28;102218.59;5034006;28;45510;-74
2021/10/24 00:30:32;;;;;;;;;28.00;26.75;;;;;7.80;75.30;102194.25;5033929;28;45450;-74
2021/10/24 00:32:57;;;;;;;;;26.75;26.00;;;;;7.87;75.00;102219.47;5033682;28;45348;-75
2021/10/24 00:35:23;;;;;;;;;29.25;25.00;;;;;7.82;74.96;102210.78;5033898;28;45423;-74
2021/10/24 00:37:48;;;;;;;;;29.25;22.50;;;;;7.83;74.96;102210.81;5034467;28;45728;-74
2021/10/24 00:40:13;;;;;;;;;34.75;25.00;;;;;7.81;75.03;102216.91;5034334;28;45423;-74
2021/10/24 00:42:47;;;;;;;;;23.25;19.25;;;;;7.79;75.22;102214.31;5033615;28;46098;-74
2021/10/24 00:45:12;;;;;;;;;27.75;21.25;;;;;7.71;75.40;102192.56;5033079;28;46070;-74
2021/10/24 00:47:38;;;;;;;;;26.00;21.00;;;;;7.77;75.26;102202.09;5033310;28;45347;-74
2021/10/24 00:50:04;;;;;;;;;27.00;25.33;;;;;7.52;75.71;102167.44;5033552;28;45568;-74
2021/10/24 00:52:29;;;;;;;;;25.50;19.00;;;;;7.73;75.44;102201.28;5034278;28;45460;-74
2021/10/24 00:54:54;;;;;;;;;26.25;22.00;;;;;7.40;75.65;102152.66;5033819;28;45356;-74
2021/10/24 00:57:20;;;;;;;;;25.00;20.25;;;;;7.71;75.48;102202.16;5033490;28;45402;-74
2021/10/24 00:59:45;;;;;;;;;21.50;18.75;;;;;7.70;75.91;102203.03;5029575;28;45399;-74
2021/10/24 01:02:11;;;;;;;;;21.25;18.25;;;;;7.69;75.55;102201.31;5020809;28;45490;-74
2021/10/24 01:04:37;;;;;;;;;18.25;18.25;;;;;7.59;76.04;102198.75;5032937;28;45491;-74
2021/10/24 01:07:03;;;;;;;;;21.50;17.25;;;;;7.61;76.13;102203.97;5033939;28;45446;-74
2021/10/24 01:09:30;;;;;;;;;19.50;15.75;;;;;7.49;76.33;102184.00;5032459;28;45406;-74
2021/10/24 01:11:56;;;;;;;;;20.50;16.75;;;;;7.53;75.97;102188.34;5030438;28;45570;-74
2021/10/24 01:14:22;;;;;;;;;21.00;15.75;;;;;7.52;76.40;102185.75;5032583;28;45434;-74
2021/10/24 01:16:51;;;;;;;;;14.50;14.50;;;;;7.54;76.46;102191.81;5028451;28;45405;-74
2021/10/24 01:19:17;;;;;;;;;20.25;16.50;;;;;7.46;75.94;102181.41;5029754;28;45329;-74
2021/10/24 01:21:43;;;;;;;;;25.50;16.75;;;;;7.53;76.57;102204.03;5033320;28;45465;-73
2021/10/24 01:24:08;;;;;;;;;19.75;17.50;;;;;7.52;76.33;102197.06;5032981;28;45443;-74
2021/10/24 01:26:35;;;;;;;;;22.00;17.75;;;;;7.50;76.09;102193.59;5033387;28;45411;-74
2021/10/24 01:29:01;;;;;;;;;17.75;16.75;;;;;7.48;76.71;102194.47;5033661;28;45646;-74
2021/10/24 01:31:27;;;;;;;;;21.25;15.75;;;;;7.44;76.52;102179.69;5033108;28;47213;-74
2021/10/24 01:33:52;;;;;;;;;20.50;16.50;;;;;7.46;76.56;102181.41;5033341;28;45349;-74
2021/10/24 01:36:17;;;;;;;;;17.50;14.75;;;;;7.44;76.69;102177.94;5035172;28;52877;-74
2021/10/24 01:38:46;;;;;;;;;17.00;15.00;;;;;7.44;76.62;102180.53;5035906;28;47127;-74
2021/10/24 01:41:11;;;;;;;;;16.25;15.75;;;;;7.43;76.70;102180.56;5036538;28;45458;-74
2021/10/24 01:43:37;;;;;;;;;16.25;16.00;;;;;7.35;76.64;102164.03;5036882;28;45479;-74
2021/10/24 01:46:04;;;;;;;;;18.25;16.25;;;;;7.41;76.67;102169.22;5037400;28;45427;-74
2021/10/24 01:48:30;;;;;;;;;18.75;16.00;;;;;7.39;76.77;102164.03;5035702;28;45631;-74
2021/10/24 01:50:56;;;;;;;;;13.50;11.50;;;;;7.30;76.81;102146.63;5036722;28;46054;-74
2021/10/24 01:53:25;;;;;;;;;16.75;13.25;;;;;7.38;76.63;102151.81;5036235;28;45418;-74
2021/10/24 01:55:51;;;;;;;;;15.00;13.75;;;;;7.33;76.56;102148.38;5021220;28;45316;-74
2021/10/24 01:58:16;;;;;;;;;16.25;13.75;;;;;7.33;76.78;102144.00;5037124;28;45443;-74
2021/10/24 02:00:43;;;;;;;;;16.50;13.50;;;;;7.32;76.61;102146.66;5035743;28;46065;-74
2021/10/24 02:03:09;;;;;;;;;15.75;12.75;;;;;7.29;76.70;102144.03;5035883;28;45252;-74
2021/10/24 02:05:36;;;;;;;;;17.50;14.25;;;;;7.27;77.28;102138.81;5034861;28;45420;-74
2021/10/24 02:08:01;;;;;;;;;17.25;13.50;;;;;7.14;76.88;102116.25;5035836;28;45717;-74
2021/10/24 02:10:27;;;;;;;;;18.00;14.50;;;;;7.25;77.14;102139.69;5036223;28;46024;-74
2021/10/24 02:12:52;;;;;;;;;19.25;17.25;;;;;7.25;77.04;102126.63;5036612;28;45388;-74
2021/10/24 02:15:18;;;;;;;;;17.33;14.00;;;;;7.23;77.10;102117.94;5036605;28;45378;-74
2021/10/24 02:17:43;;;;;;;;;19.50;13.25;;;;;7.23;77.04;102112.72;5036362;28;45331;-74
2021/10/24 02:20:09;;;;;;;;;17.50;14.00;;;;;6.92;76.59;102059.78;5035200;28;46274;-74
2021/10/24 02:22:36;;;;;;;;;17.00;12.00;;;;;7.19;76.97;102105.75;5036042;28;46034;-74
2021/10/24 02:25:02;;;;;;;;;14.00;12.00;;;;;7.16;76.59;102108.41;5036711;28;45557;-74
2021/10/24 02:27:27;;;;;;;;;13.50;11.00;;;;;7.15;76.87;102098.81;5036736;28;45465;-74
2021/10/24 02:29:53;;;;;;;;;14.75;14.00;;;;;7.02;76.91;102080.59;5035572;28;46080;-74
2021/10/24 02:32:18;;;;;;;;;14.25;12.50;;;;;7.07;76.69;102091.03;5036080;28;45421;-74
2021/10/24 02:34:44;;;;;;;;;15.00;15.00;;;;;7.00;76.61;102082.38;5036210;28;45646;-74
2021/10/24 02:37:10;;;;;;;;;16.75;13.50;;;;;7.07;76.89;102091.91;5034815;28;45539;-74
2021/10/24 02:39:35;;;;;;;;;15.75;11.25;;;;;6.93;77.02;102069.34;5035174;28;47452;-74
2021/10/24 02:42:01;;;;;;;;;11.50;11.50;;;;;7.04;76.76;102088.41;5015167;28;45773;-74
2021/10/24 02:44:26;;;;;;;;;15.00;13.00;;;;;7.03;77.08;102086.69;5035982;28;45516;-74
2021/10/24 02:46:53;;;;;;;;;15.00;11.00;;;;;7.02;76.76;102092.81;5035084;28;45380;-74
2021/10/24 02:49:19;;;;;;;;;14.00;10.50;;;;;7.01;76.84;102088.47;5036177;28;46693;-74
2021/10/24 02:51:45;;;;;;;;;14.00;14.00;;;;;7.00;76.80;102084.13;5035167;28;45441;-74
2021/10/24 02:54:10;;;;;;;;;13.00;11.50;;;;;6.98;76.89;102086.72;5034835;28;45482;-74
2021/10/24 02:56:36;;;;;;;;;14.25;13.00;;;;;6.96;77.19;102078.03;5035302;28;45315;-74
2021/10/24 02:59:01;;;;;;;;;17.25;12.75;;;;;6.94;77.43;102073.69;5035111;28;46278;-74
2021/10/24 03:01:26;;;;;;;;;15.75;12.75;;;;;6.92;77.31;102063.25;5035742;28;45304;-74
2021/10/24 03:03:52;;;;;;;;;12.25;11.00;;;;;6.69;77.05;102031.19;5034465;28;46555;-74
2021/10/24 03:06:17;;;;;;;;;13.25;12.50;;;;;6.90;77.47;102067.63;5034882;28;45331;-74
2021/10/24 03:08:42;;;;;;;;;14.00;13.25;;;;;6.89;77.43;102072.84;5034936;28;46025;-74
2021/10/24 03:11:08;;;;;;;;;18.75;16.00;;;;;6.87;77.17;102069.38;5034413;28;45416;-74
2021/10/24 03:13:33;;;;;;;;;18.00;13.00;;;;;6.53;77.55;102013.00;5035345;28;45521;-74
2021/10/24 03:15:58;;;;;;;;;13.00;11.67;;;;;6.84;77.58;102072.91;5035554;28;45591;-74
2021/10/24 03:18:24;;;;;;;;;10.25;7.75;;;;;6.76;77.05;102057.25;5035168;28;46226;-74
2021/10/24 03:20:49;;;;;;;;;12.50;10.75;;;;;6.58;77.23;102032.97;5034692;28;45324;-74
2021/10/24 03:23:14;;;;;;;;;8.75;8.75;;;;;6.76;76.81;102067.69;5035314;28;46060;-74
2021/10/24 03:25:40;;;;;;;;;14.75;9.75;;;;;6.72;77.30;102059.88;5035442;28;45505;-74
2021/10/24 03:28:05;;;;;;;;;11.00;11.00;;;;;6.73;77.30;102061.63;5034797;28;45335;-74
2021/10/24 03:30:31;;;;;;;;;23.50;11.00;;;;;6.67;77.00;102054.69;5034625;28;46019;-74
2021/10/24 03:32:57;;;;;;;;;10.75;10.00;;;;;6.69;77.38;102063.41;5035074;28;45568;-74
2021/10/24 03:35:23;;;;;;;;;17.50;11.75;;;;;6.70;77.29;102064.25;5034408;28;45396;-74
2021/10/24 03:37:48;;;;;;;;;13.00;11.00;;;;;6.62;77.20;102056.44;5018904;28;46084;-74
2021/10/24 03:40:14;;;;;;;;;14.00;13.50;;;;;6.56;77.17;102046.03;5034640;28;45556;-74
2021/10/24 03:42:39;;;;;;;;;10.75;10.25;;;;;6.58;77.27;102053.88;5034292;28;45555;-74
2021/10/24 03:45:06;;;;;;;;;12.00;10.00;;;;;6.54;77.83;102056.50;5034689;28;45435;-74
2021/10/24 03:47:31;;;;;;;;;15.00;11.50;;;;;6.57;77.64;102054.75;5034609;28;45932;-74
2021/10/24 03:49:57;;;;;;;;;14.50;10.50;;;;;6.60;77.21;102063.44;5034469;28;45510;-74
2021/10/24 03:52:22;;;;;;;;;15.50;11.75;;;;;6.50;77.60;102054.78;5034954;28;45423;-74
2021/10/24 03:54:48;;;;;;;;;12.25;10.75;;;;;6.58;77.56;102075.66;5034381;28;45247;-74
2021/10/24 03:57:13;;;;;;;;;17.33;11.00;;;;;6.53;77.66;102073.06;5033566;28;58865;-74
2021/10/24 03:59:39;;;;;;;;;8.75;8.25;;;;;6.57;77.70;102084.34;5033336;28;45514;-74
2021/10/24 04:02:04;;;;;;;;;10.75;9.00;;;;;6.56;77.99;102081.75;5033966;28;45987;-74
2021/10/24 04:04:29;;;;;;;;;14.75;11.00;;;;;6.54;77.78;102082.63;5035010;28;45398;-74
2021/10/24 04:06:55;;;;;;;;;16.25;11.75;;;;;6.51;78.30;102080.00;5033722;28;46112;-74
2021/10/24 04:09:20;;;;;;;;;12.00;12.00;;;;;6.45;77.81;102077.44;5034011;28;45395;-74
2021/10/24 04:11:45;;;;;;;;;13.67;10.67;;;;;6.40;77.96;102076.59;5034283;28;46262;-74
2021/10/24 04:14:11;;;;;;;;;14.25;12.50;;;;;6.49;78.23;102091.34;5033787;28;45407;-74
2021/10/24 04:16:36;;;;;;;;;11.75;11.75;;;;;6.47;77.94;102095.69;5033860;28;45451;-74
2021/10/24 04:19:02;;;;;;;;;14.00;11.50;;;;;6.43;77.70;102107.91;5034656;28;45442;-74
2021/10/24 04:21:27;;;;;;;;;11.25;9.00;;;;;6.40;77.75;102105.31;5034330;28;45424;-74
2021/10/24 04:23:53;;;;;;;;;10.00;9.75;;;;;6.31;77.87;102092.28;5034196;28;45551;-74
2021/10/24 04:26:18;;;;;;;;;11.50;10.75;;;;;6.32;77.51;102098.38;5034461;28;45732;-74
2021/10/24 04:28:44;;;;;;;;;14.50;10.50;;;;;6.12;77.44;102064.53;5033979;28;45356;-74
2021/10/24 04:31:09;;;;;;;;;12.25;9.00;;;;;6.33;77.39;102100.13;5033721;28;45566;-74
2021/10/24 04:33:34;;;;;;;;;14.00;12.50;;;;;6.29;77.74;102096.66;5033403;28;45512;-74
2021/10/24 04:36:00;;;;;;;;;15.50;8.00;;;;;6.18;77.87;102083.63;5033403;28;45454;-74
2021/10/24 04:38:25;;;;;;;;;17.50;13.75;;;;;6.27;77.52;102101.88;5033921;28;45465;-74
2021/10/24 04:40:50;;;;;;;;;18.00;10.50;;;;;6.19;77.72;102090.59;5034320;28;45395;-74
2021/10/24 04:43:17;;;;;;;;;11.00;9.75;;;;;6.24;78.37;102093.19;5034268;28;45356;-74
2021/10/24 04:45:42;;;;;;;;;12.25;9.25;;;;;6.27;77.84;102101.03;5033935;28;46147;-74
2021/10/24 04:48:08;;;;;;;;;13.50;11.00;;;;;6.27;77.91;102098.41;5033412;28;45500;-74
2021/10/24 04:50:34;;;;;;;;;12.75;11.00;;;;;6.24;77.82;102087.97;5033013;28;45474;-74
2021/10/24 04:53:04;;;;;;;;;9.00;6.75;;;;;6.28;77.99;102094.91;5033630;28;45319;-74
2021/10/24 04:55:29;;;;;;;;;17.00;11.75;;;;;6.15;77.76;102073.19;5033795;28;46350;-74
2021/10/24 04:57:54;;;;;;;;;9.25;9.00;;;;;6.22;77.61;102085.38;5034440;28;45498;-74
2021/10/24 05:00:20;;;;;;;;;10.33;10.00;;;;;6.11;77.69;102062.75;5032813;28;51698;-74
2021/10/24 05:02:45;;;;;;;;;14.00;8.50;;;;;6.16;77.96;102084.50;5033620;28;45561;-74
2021/10/24 05:05:10;;;;;;;;;9.25;9.00;;;;;6.18;77.40;102085.38;5032099;28;45442;-74
2021/10/24 05:07:36;;;;;;;;;9.00;9.00;;;;;6.10;77.56;102068.88;5033100;28;45431;-74
2021/10/24 05:10:01;;;;;;;;;11.50;11.50;;;;;6.05;77.64;102068.88;5034761;28;45788;-74
2021/10/24 05:12:27;;;;;;;;;11.25;11.25;;;;;6.11;77.66;102081.03;5019161;28;45431;-74
2021/10/24 05:14:52;;;;;;;;;12.25;10.00;;;;;5.87;78.13;102040.22;5037153;28;45565;-74
2021/10/24 05:17:17;;;;;;;;;11.75;11.75;;;;;6.01;78.11;102062.81;5018417;28;46818;-74
2021/10/24 05:19:44;;;;;;;;;11.50;10.50;;;;;5.98;78.19;102060.19;5036832;28;45466;-74
2021/10/24 05:22:10;;;;;;;;;11.00;9.25;;;;;6.06;77.91;102065.41;5036632;28;45432;-74
2021/10/24 05:24:35;;;;;;;;;14.00;12.50;;;;;6.05;77.82;102063.66;5017369;28;46425;-74
2021/10/24 05:27:00;;;;;;;;;10.75;7.25;;;;;6.05;77.99;102065.41;5036762;28;45480;-73
2021/10/24 05:29:25;;;;;;;;;10.00;9.75;;;;;6.04;78.21;102067.13;5036159;28;45363;-74
2021/10/24 05:31:51;;;;;;;;;12.33;10.33;;;;;5.99;77.51;102056.72;5037294;28;45358;-74
2021/10/24 05:34:16;;;;;;;;;16.00;10.00;;;;;5.79;77.84;102029.78;5037155;28;49621;-74
2021/10/24 05:36:43;;;;;;;;;13.25;9.50;;;;;5.92;78.36;102051.53;5035750;28;45391;-74
2021/10/24 05:39:09;;;;;;;;;10.00;10.00;;;;;5.97;78.20;102053.25;5036339;28;45553;-74
2021/10/24 05:41:34;;;;;;;;;13.50;10.00;;;;;5.97;77.82;102068.91;5036886;28;45524;-74
2021/10/24 05:44:00;;;;;;;;;7.50;7.25;;;;;5.94;77.67;102060.22;5036476;28;46034;-74
2021/10/24 05:46:25;;;;;;;;;11.25;8.75;;;;;5.94;78.22;102055.84;5036879;28;45475;-74
2021/10/24 05:48:51;;;;;;;;;10.25;10.00;;;;;5.89;78.62;102049.75;5036958;28;45486;-74
2021/10/24 05:51:17;;;;;;;;;9.25;8.75;;;;;5.98;78.63;102062.81;5036379;28;45416;-74
2021/10/24 05:53:42;;;;;;;;;9.25;9.25;;;;;5.89;78.58;102041.91;5035422;28;46381;-74
2021/10/24 05:56:07;;;;;;;;;9.50;9.50;;;;;5.98;78.56;102049.75;5035765;28;45527;-74
2021/10/24 05:58:32;;;;;;;;;13.50;11.25;;;;;5.92;78.51;102041.09;5036014;28;45331;-74
2021/10/24 06:00:58;;;;;;;;;13.33;10.00;;;;;5.98;78.62;102054.97;5037104;28;45536;-74
2021/10/24 06:03:23;;;;;;;;;10.75;9.00;;;;;5.93;78.24;102054.13;5036315;28;45447;-73
2021/10/24 06:05:49;;;;;;;;;9.75;8.00;;;;;5.96;78.56;102056.75;5036163;28;45350;-74
2021/10/24 06:08:23;;;;;;;;;12.50;10.00;;;;;5.96;78.67;102054.13;5035939;28;45520;-74
2021/10/24 06:10:53;;;;;;;;;12.00;8.50;;;;;5.94;78.54;102052.38;5035764;28;45554;-74
2021/10/24 06:13:19;;;;;;;;;12.75;12.75;;;;;5.92;78.84;102057.63;5031078;28;47043;-74
2021/10/24 06:15:45;;;;;;;;;10.25;8.75;;;;;5.84;78.44;102038.47;5035904;28;45938;-74
2021/10/24 06:18:11;;;;;;;;;12.25;9.50;;;;;5.89;78.66;102049.75;5035840;28;45494;-74
2021/10/24 06:20:36;;;;;;;;;10.50;9.25;;;;;5.87;78.34;102050.63;5036240;28;45422;-74
2021/10/24 06:23:02;;;;;;;;;13.75;10.50;;;;;5.80;78.61;102036.75;5035674;28;49039;-74
2021/10/24 06:25:27;;;;;;;;;13.50;13.00;;;;;5.84;78.03;102048.88;5035388;28;45452;-74
2021/10/24 06:27:53;;;;;;;;;10.00;10.00;;;;;5.75;78.25;102041.09;5034905;28;45543;-74
2021/10/24 06:30:22;;;;;;;;;13.50;10.25;;;;;5.83;77.86;102055.00;5035615;28;45467;-74
2021/10/24 06:32:47;;;;;;;;;12.00;9.00;;;;;5.83;78.33;102057.59;5035802;28;47195;-74
2021/10/24 06:35:12;;;;;;;;;15.75;10.50;;;;;5.83;78.24;102052.38;5035914;28;45289;-74
2021/10/24 06:37:44;;;;;;;;;12.00;10.00;;;;;5.76;78.00;102042.84;5035365;28;45520;-74
2021/10/24 06:40:11;;;;;;;;;16.75;11.25;;;;;5.76;78.42;102050.66;5036343;28;45417;-74
2021/10/24 06:42:37;;;;;;;;;15.25;11.25;;;;;5.77;78.29;102049.78;5035250;28;45732;-74
2021/10/24 06:45:04;;;;;;;;;9.75;9.00;;;;;5.88;78.23;102063.69;5034964;28;45501;-74
2021/10/24 06:47:29;;;;;;;;;12.25;11.25;;;;;5.90;78.11;102055.84;5035590;28;45480;-74
2021/10/24 06:49:55;;;;;;;;;13.25;10.75;;;;;5.94;78.20;102058.47;5034986;28;45408;-74
2021/10/24 06:52:20;;;;;;;;;13.25;12.75;;;;;5.65;78.50;102008.97;5036737;28;45483;-73
2021/10/24 06:54:45;;;;;;;;;14.25;9.50;;;;;6.06;78.91;102056.72;5035563;28;45473;-74
2021/10/24 06:57:11;;;;;;;;;12.50;11.25;;;;;6.14;78.12;102061.03;5033751;28;45502;-74
2021/10/24 06:59:39;;;;;;;;;9.25;9.25;;;;;6.29;78.44;102062.72;5017751;28;45460;-74
2021/10/24 07:02:05;;;;;;;;;15.75;10.25;;;;;6.72;79.27;102060.75;5033596;28;45511;-74
2021/10/24 07:04:30;;;;;;;;;19.00;15.75;;;;;7.26;78.06;102052.56;5034937;28;49127;-74
2021/10/24 07:06:55;;;;;;;;;13.50;12.00;;;;;7.68;77.56;102047.81;5035790;28;45505;-74
2021/10/24 07:09:21;;;;;;;;;12.33;11.67;;;;;8.71;77.20;102037.84;5034659;28;51370;-74
2021/10/24 07:11:46;;;;;;;;;16.75;11.25;;;;;9.93;75.34;102040.16;5035209;28;45435;-72
2021/10/24 07:14:11;;;;;;;;;15.75;11.00;;;;;10.58;72.76;102047.59;5035492;28;45681;-76
2021/10/24 07:16:37;;;;;;;;;14.75;13.00;;;;;11.10;70.49;102026.22;5034744;28;45538;-73
2021/10/24 07:19:02;;;;;;;;;13.33;12.00;;;;;11.47;69.18;102033.19;5034596;28;53295;-74
2021/10/24 07:21:27;;;;;;;;;9.50;9.00;;;;;12.07;69.31;102029.84;5034770;28;45377;-71
2021/10/24 07:23:53;;;;;;;;;14.00;12.25;;;;;12.91;68.17;102034.34;5035024;28;45410;-73
2021/10/24 07:26:18;;;;;;;;;14.00;11.50;;;;;13.06;66.22;102025.94;5035107;28;45545;-72
2021/10/24 07:28:43;;;;;;;;;14.25;11.25;;;;;13.48;66.34;102026.28;5034914;28;45440;-72
2021/10/24 07:31:09;;;;;;;;;14.50;11.75;;;;;14.68;65.66;102028.06;5016738;28;45880;-72
2021/10/24 07:33:34;;;;;;;;;15.00;14.75;;;;;16.05;62.91;102013.41;5033749;28;45420;-72
2021/10/24 07:36:00;;;;;;;;;18.75;15.00;;;;;17.38;61.03;102019.41;5034189;28;45625;-72
2021/10/24 07:38:25;;;;;;;;;16.25;13.25;;;;;18.70;58.58;102016.78;5034265;28;45467;-72
2021/10/24 07:40:51;;;;;;;;;16.75;13.75;;;;;19.87;56.04;102010.75;5016625;28;46171;-73
2021/10/24 07:43:18;;;;;;;;;19.00;14.25;;;;;20.28;52.74;102017.97;5035184;28;45559;-73
2021/10/24 07:45:43;;;;;;;;;23.00;17.50;;;;;20.39;52.53;102019.97;5034693;28;45309;-72
2021/10/24 07:48:09;;;;;;;;;20.25;16.50;;;;;21.26;52.52;102009.78;5016637;28;45483;-73
2021/10/24 07:50:35;;;;;;;;;15.25;13.50;;;;;22.37;50.13;102019.00;5033946;28;45940;-72
2021/10/24 07:53:03;;;;;;;;;13.25;13.25;;;;;23.33;49.02;102016.34;5034333;28;45464;-72
2021/10/24 07:55:28;;;;;;;;;16.00;14.25;;;;;24.18;47.04;102009.66;5032146;28;46308;-72
2021/10/24 07:57:55;;;;;;;;;21.75;19.00;;;;;25.10;46.65;102006.63;5035147;28;45407;-72
2021/10/24 08:00:20;;;;;;;;;27.50;26.00;;;;;26.12;45.44;102007.69;5038520;28;47950;-72
2021/10/24 08:02:46;;;;;;;;;19.00;15.50;;;;;26.79;43.28;101980.91;5038561;28;45474;-72
2021/10/24 08:05:12;;;;;;;;;13.75;13.50;;;;;27.67;41.18;101992.47;5035396;28;45467;-72
2021/10/24 08:07:39;;;;;;;;;12.50;9.50;;;;;28.11;39.30;102003.53;5036050;28;45633;-72
2021/10/24 08:10:06;;;;;;;;;12.50;10.50;;;;;28.63;39.73;101993.03;5048355;28;45385;-72
2021/10/24 08:12:32;;;;;;;;;9.50;9.25;;;;;29.13;37.88;101973.56;5040254;28;45375;-72
2021/10/24 08:14:58;;;;;;;;;11.50;10.00;;;;;29.75;37.53;101998.69;5017020;28;45715;-72
2021/10/24 08:17:23;;;;;;;;;12.50;10.25;;;;;30.11;35.37;102003.94;5041122;28;45579;-72
2021/10/24 08:19:49;;;;;;;;;11.25;9.50;;;;;30.24;35.58;101998.13;5034206;28;46403;-72
2021/10/24 08:22:18;;;;;;;;;10.50;9.00;;;;;30.81;34.81;101999.13;5038205;28;48906;-72
2021/10/24 08:24:43;;;;;;;;;12.00;11.00;;;;;31.56;33.72;101993.50;5047362;28;45401;-72
2021/10/24 08:27:09;;;;;;;;;12.00;10.25;;;;;31.82;32.17;101989.72;5043711;28;45775;-73
2021/10/24 08:29:34;;;;;;;;;11.00;10.00;;;;;32.07;32.89;101987.75;5037772;28;46107;-72
2021/10/24 08:32:02;;;;;;;;;10.00;10.00;;;;;32.71;31.09;101985.69;5035947;28;45383;-73
2021/10/24 08:34:28;;;;;;;;;14.25;12.50;;;;;33.33;30.46;101995.59;5019942;28;45397;-73
2021/10/24 08:36:53;;;;;;;;;12.50;10.25;;;;;33.98;30.43;101987.56;5058567;28;45610;-73
2021/10/24 08:39:19;;;;;;;;;10.75;10.25;;;;;34.77;29.20;101992.28;5042346;28;45398;-73
2021/10/24 08:41:48;;;;;;;;;17.75;14.50;;;;;35.44;29.03;102001.88;5037993;28;45539;-73
2021/10/24 08:44:14;;;;;;;;;9.25;9.25;;;;;36.01;28.25;101992.59;5036975;28;45425;-71
2021/10/24 08:46:40;;;;;;;;;11.50;9.25;;;;;35.92;26.46;102002.88;5034613;28;45335;-73
2021/10/24 08:49:06;;;;;;;;;10.75;9.00;;;;;35.53;25.86;101998.84;5054460;28;47219;-71
2021/10/24 08:51:31;;;;;;;;;9.50;9.50;;;;;35.15;26.35;102012.00;5043778;28;45359;-70
2021/10/24 08:53:59;;;;;;;;;9.25;9.25;;;;;35.06;25.98;101999.50;5044776;28;45967;-71
2021/10/24 08:56:28;;;;;;;;;11.00;9.00;;;;;35.08;26.99;102012.97;5034284;28;45549;-72
2021/10/24 08:58:54;;;;;;;;;9.00;9.00;;;;;35.24;25.27;102010.81;5049208;28;45331;-71
2021/10/24 09:01:20;;;;;;;;;10.00;9.75;;;;;35.34;24.55;102010.44;5054724;28;45295;-71
2021/10/24 09:04:07;;;;;;;;;9.00;7.00;;;;;35.16;25.20;102001.91;5037590;28;45377;-71
2021/10/24 09:06:55;;;;;;;;;9.00;8.25;;;;;35.55;25.65;102001.38;5036553;28;45473;-70
2021/10/24 09:09:35;;;;;;;;;10.25;10.25;;;;;35.93;23.90;101995.50;5045362;28;45766;-71
2021/10/24 09:12:02;;;;;;;;;12.00;9.25;;;;;36.26;24.19;101987.44;5043124;28;45537;-71
2021/10/24 09:14:34;;;;;;;;;10.25;8.00;;;;;36.54;23.70;101990.06;5038132;28;45480;-72
2021/10/24 09:16:59;;;;;;;;;8.25;7.50;;;;;37.11;23.65;101991.41;5049271;28;45563;-71
2021/10/24 09:19:25;;;;;;;;;11.00;10.00;;;;;36.96;22.13;101986.16;5044346;28;46022;-74
2021/10/24 09:21:50;;;;;;;;;9.25;9.25;;;;;36.46;22.39;101985.63;5052748;28;45369;-71
2021/10/24 09:24:15;;;;;;;;;8.00;8.00;;;;;36.51;23.56;101980.38;5038064;28;45450;-68
2021/10/24 09:26:42;;;;;;;;;10.75;9.00;;;;;36.91;22.68;101974.13;5037892;28;45563;-69
2021/10/24 09:29:16;;;;;;;;;9.50;8.00;;;;;36.97;22.89;101970.56;5036369;28;46307;-68
2021/10/24 09:31:44;;;;;;;;;8.25;7.00;;;;;36.67;22.51;101970.09;5016288;28;45853;-69
2021/10/24 09:34:23;;;;;;;;;8.25;7.75;;;;;36.60;22.49;101967.34;5038800;28;45506;-68
2021/10/24 09:36:56;;;;;;;;;10.00;8.00;;;;;36.73;21.42;101955.56;5046047;28;45482;-68
2021/10/24 09:39:34;;;;;;;;;7.75;7.75;;;;;36.52;22.10;101948.38;5040247;28;46330;-68
2021/10/24 09:42:19;;;;;;;;;9.25;8.75;;;;;36.25;22.19;101952.91;5047865;28;45628;-68
2021/10/24 09:45:06;;;;;;;;;13.00;9.75;;;;;36.24;23.07;101951.22;5045744;28;45717;-68
2021/10/24 09:47:38;;;;;;;;;10.00;10.00;;;;;35.98;22.35;101947.34;5037523;28;45792;-68
2021/10/24 09:50:06;;;;;;;;;10.00;8.25;;;;;35.24;22.87;101953.41;5034327;28;45295;-68
2021/10/24 09:52:33;;;;;;;;;11.25;9.75;;;;;34.15;23.15;101947.28;5042287;28;45937;-68
2021/10/24 09:54:59;;;;;;;;;7.25;7.25;;;;;32.84;23.93;101966.03;5038222;28;45570;-68
2021/10/24 09:57:25;;;;;;;;;12.00;8.25;;;;;31.84;24.18;101957.75;5040395;28;45578;-68
2021/10/24 09:59:53;;;;;;;;;8.50;8.00;;;;;31.14;25.27;101969.25;5040868;28;45476;-68
2021/10/24 10:02:19;;;;;;;;;10.75;9.25;;;;;30.26;25.91;101977.94;5040196;28;47979;-67
2021/10/24 10:04:45;;;;;;;;;9.75;9.50;;;;;29.49;26.59;101977.00;5035320;28;45323;-68
2021/10/24 10:07:11;;;;;;;;;12.25;9.25;;;;;28.76;26.60;101969.13;5042064;28;45324;-67
2021/10/24 10:09:37;;;;;;;;;10.25;10.25;;;;;28.09;27.74;101968.56;5040741;28;46901;-68
2021/10/24 10:12:05;;;;;;;;;8.25;6.50;;;;;27.65;28.37;101972.00;5038334;28;45439;-68
2021/10/24 10:14:34;;;;;;;;;8.00;8.00;;;;;26.98;28.69;101976.50;5040528;28;45737;-68
2021/10/24 10:17:07;;;;;;;;;10.75;8.75;;;;;26.51;29.50;101971.78;5040068;28;45524;-68
2021/10/24 10:19:38;;;;;;;;;9.50;6.25;;;;;26.35;30.24;101949.88;5042589;28;46079;-68
2021/10/24 10:22:22;;;;;;;;;10.75;8.00;;;;;26.17;30.24;101962.34;5034017;28;45940;-67
2021/10/24 10:25:01;;;;;;;;;10.00;7.75;;;;;25.85;30.59;101957.97;5036913;28;45486;-68
2021/10/24 10:27:26;;;;;;;;;10.75;8.00;;;;;25.40;30.91;101960.13;5040290;28;45403;-67
2021/10/24 10:29:54;;;;;;;;;10.00;10.00;;;;;25.07;31.47;101953.97;5038264;28;46351;-68
2021/10/24 10:32:24;;;;;;;;;10.25;10.25;;;;;24.64;31.60;101952.19;5038260;28;45800;-68
2021/10/24 10:35:03;;;;;;;;;10.25;10.25;;;;;24.47;32.79;101956.25;5034977;28;45527;-68
2021/10/24 10:37:45;;;;;;;;;12.25;10.25;;;;;24.39;32.89;101957.88;5031300;28;46655;-66
2021/10/24 10:40:19;;;;;;;;;13.00;10.25;;;;;24.21;32.82;101966.41;5034676;28;45965;-67
2021/10/24 10:42:45;;;;;;;;;11.00;10.00;;;;;24.10;32.72;101963.72;5035886;28;45574;-67
2021/10/24 10:45:13;;;;;;;;;12.25;9.50;;;;;23.82;32.71;101965.09;5035814;28;45442;-67
2021/10/24 10:47:47;;;;;;;;;13.00;10.00;;;;;23.52;33.91;101959.44;5035954;28;45266;-67
2021/10/24 10:50:28;;;;;;;;;10.75;10.75;;;;;23.29;33.66;101961.25;5034699;28;46587;-67
2021/10/24 10:52:54;;;;;;;;;10.75;9.25;;;;;23.20;33.86;101953.91;5024160;28;45545;-67
2021/10/24 10:55:20;;;;;;;;;9.50;9.50;;;;;23.20;34.43;101953.91;5035918;28;45589;-66
2021/10/24 10:57:46;;;;;;;;;12.00;10.75;;;;;22.97;34.54;101955.63;5035183;28;45328;-67
2021/10/24 11:00:36;;;;;;;;;13.50;10.50;;;;;22.63;34.86;101964.38;5034609;28;46140;-67
2021/10/24 11:03:05;;;;;;;;;10.50;9.00;;;;;22.42;35.28;101960.59;5035792;28;45580;-68
2021/10/24 11:05:39;;;;;;;;;12.25;10.00;;;;;22.32;35.87;101964.91;5035043;28;45505;-67
2021/10/24 11:08:25;;;;;;;;;11.50;8.00;;;;;22.17;35.72;101964.19;5032400;28;45594;-67
2021/10/24 11:10:51;;;;;;;;;11.00;10.75;;;;;21.86;36.52;101969.03;5029774;28;45530;-67
2021/10/24 11:13:28;;;;;;;;;11.25;9.50;;;;;21.63;36.40;101978.69;5035872;28;45408;-67
2021/10/24 11:15:54;;;;;;;;;14.00;9.50;;;;;21.52;37.08;101970.56;5034444;28;45312;-68